Time;durP1;ratioP1;P1;durP2;ratioP2;P2;SDS_P1;SDS_P2;PMS_P1;PMS_P2;Temp;Humidity;BMP_temperature;BMP_pressure;BME280_temperature;BME280_humidity;BME280_pressure;Samples;Min_cycle;Max_cycle;Signal;HPM_P1;HPM_P2
2023/05/05 00:00:26;;;;;;;5.00;2.70;;;;;;;13.66;53.48;101038.61;111126;1235;71569;-95
2023/05/05 00:02:54;;;;;;;4.50;2.40;;;;;;;13.64;53.44;101037.42;111099;1230;61413;-93
2023/05/05 00:05:24;;;;;;;5.00;2.60;;;;;;;13.63;53.54;101043.21;111173;1232;60254;-94
2023/05/05 00:08:00;;;;;;;7.20;2.80;;;;;;;13.61;53.71;101045.30;111139;1232;73880;-94
2023/05/05 00:10:38;;;;;;;6.10;3.20;;;;;;;13.63;53.69;101050.15;111167;1232;71483;-94
2023/05/05 00:13:07;;;;;;;3.80;2.40;;;;;;;13.64;53.66;101045.96;111100;1232;73873;-93
2023/05/05 00:15:52;;;;;;;6.30;2.80;;;;;;;13.64;53.79;101042.89;111147;1232;60604;-96
2023/05/05 00:18:21;;;;;;;5.20;3.00;;;;;;;13.62;53.74;101041.45;111310;1232;60235;-94
2023/05/05 00:20:48;;;;;;;5.50;2.80;;;;;;;13.61;53.85;101043.81;111090;1232;74269;-93
2023/05/05 00:23:16;;;;;;;4.90;2.80;;;;;;;13.65;53.83;101044.73;111212;1231;73050;-95
2023/05/05 00:25:44;;;;;;;4.30;2.60;;;;;;;13.62;53.90;101048.33;110996;1235;73877;-94
2023/05/05 00:28:15;;;;;;;6.60;3.00;;;;;;;13.64;53.94;101053.48;111032;1230;61490;-96
2023/05/05 00:31:04;;;;;;;6.30;3.20;;;;;;;13.65;53.94;101052.84;111202;1230;60183;-94
2023/05/05 00:33:34;;;;;;;4.70;2.70;;;;;;;13.77;53.62;101047.42;111391;1231;74394;-95
2023/05/05 00:36:04;;;;;;;7.10;2.80;;;;;;;13.79;53.61;101043.84;111409;1232;73997;-94
2023/05/05 00:38:36;;;;;;;4.80;2.30;;;;;;;13.77;53.54;101043.83;111307;1237;72405;-94
2023/05/05 00:41:24;;;;;;;5.90;2.60;;;;;;;13.74;53.61;101046.94;111553;1232;61528;-95
2023/05/05 00:43:52;;;;;;;4.50;2.50;;;;;;;13.71;53.68;101052.15;111474;1231;60382;-95
2023/05/05 00:46:24;;;;;;;5.00;2.50;;;;;;;13.69;53.82;101053.59;111211;1231;73919;-94
2023/05/05 00:48:52;;;;;;;4.60;2.40;;;;;;;13.54;54.04;101051.09;111411;1232;72598;-95
2023/05/05 00:51:20;;;;;;;4.80;2.70;;;;;;;13.53;54.28;101049.10;111584;1230;72182;-93
2023/05/05 00:53:48;;;;;;;5.00;2.30;;;;;;;13.55;54.23;101050.98;111177;1232;60368;-93
2023/05/05 00:56:18;;;;;;;8.90;3.40;;;;;;;13.55;54.23;101051.79;111214;1231;60503;-93
2023/05/05 00:58:52;;;;;;;4.80;2.80;;;;;;;13.54;54.18;101050.98;111548;1232;73787;-95
2023/05/05 01:01:50;;;;;;;6.30;2.80;;;;;;;13.53;54.24;101048.89;111688;1231;72755;-95
2023/05/05 01:04:26;;;;;;;4.30;2.50;;;;;;;13.51;54.35;101047.31;111640;1231;73526;-95
2023/05/05 01:07:28;;;;;;;4.50;2.70;;;;;;;13.48;54.44;101042.58;111478;1231;60458;-94
2023/05/05 01:13:54;;;;;;;5.10;2.50;;;;;;;13.44;54.84;101037.05;111641;1232;74663;-95
2023/05/05 01:16:53;;;;;;;4.80;2.70;;;;;;;13.41;54.88;101045.67;111634;1232;72532;-95
2023/05/05 01:19:54;;;;;;;4.30;2.40;;;;;;;13.41;54.94;101041.17;111807;1232;73013;-94
2023/05/05 01:23:07;;;;;;;5.40;3.00;;;;;;;13.40;54.96;101036.50;111692;1232;61768;-94
2023/05/05 01:26:01;;;;;;;6.50;2.80;;;;;;;13.38;55.13;101031.45;111677;1232;61857;-95
2023/05/05 01:28:41;;;;;;;4.90;2.50;;;;;;;13.38;55.11;101025.17;111511;1232;74896;-94
2023/05/05 01:31:44;;;;;;;4.30;2.80;;;;;;;13.35;55.14;101026.61;111237;1231;71957;-93
2023/05/05 01:34:12;;;;;;;4.50;2.50;;;;;;;13.30;55.27;101029.49;110972;1232;73532;-93
2023/05/05 01:36:45;;;;;;;4.20;2.70;;;;;;;13.27;55.47;101025.73;111066;1234;60872;-93
2023/05/05 01:39:14;;;;;;;4.70;2.60;;;;;;;13.26;55.48;101029.38;111031;1232;60359;-94
2023/05/05 01:41:45;;;;;;;4.30;2.50;;;;;;;13.25;55.55;101030.70;111259;1232;73501;-94
2023/05/05 01:44:15;;;;;;;5.80;2.70;;;;;;;13.26;55.70;101034.41;111136;1231;74665;-94
2023/05/05 01:46:48;;;;;;;5.80;2.80;;;;;;;13.26;55.79;101034.15;111332;1232;72010;-94
2023/05/05 01:49:17;;;;;;;4.30;2.80;;;;;;;13.27;55.95;101031.95;111155;1232;62075;-95
2023/05/05 01:51:47;;;;;;;6.60;2.90;;;;;;;13.27;56.14;101028.95;111334;1231;60315;-94
2023/05/05 01:54:15;;;;;;;6.60;3.00;;;;;;;13.29;56.07;101028.63;111344;1231;75369;-95
2023/05/05 01:56:42;;;;;;;6.50;2.90;;;;;;;13.30;56.19;101030.52;111070;1232;72559;-93
2023/05/05 01:59:09;;;;;;;6.10;3.10;;;;;;;13.30;56.25;101028.31;111230;1232;72495;-92
2023/05/05 02:01:40;;;;;;;6.30;3.00;;;;;;;13.31;56.22;101022.95;111232;1232;60602;-91
2023/05/05 02:04:11;;;;;;;5.10;3.00;;;;;;;13.29;56.35;101021.56;111248;1232;61348;-93
2023/05/05 02:06:38;;;;;;;5.40;2.70;;;;;;;13.30;56.48;101031.48;111328;1231;75437;-92
2023/05/05 02:09:07;;;;;;;5.40;2.90;;;;;;;13.37;56.26;101032.47;111440;1232;71055;-93
2023/05/05 02:11:35;;;;;;;5.10;3.00;;;;;;;13.45;56.08;101030.65;111632;1231;72337;-94
2023/05/05 02:14:02;;;;;;;5.70;2.90;;;;;;;13.43;56.09;101030.67;111575;1231;61205;-94
2023/05/05 02:16:30;;;;;;;4.50;2.60;;;;;;;13.41;56.19;101031.14;111471;1232;61773;-93
2023/05/05 02:19:01;;;;;;;5.20;2.50;;;;;;;13.33;56.39;101032.45;111560;1232;73278;-94
2023/05/05 02:21:28;;;;;;;5.30;2.80;;;;;;;13.18;56.78;101035.96;111519;1231;73702;-94
2023/05/05 02:23:55;;;;;;;4.40;2.50;;;;;;;13.14;56.98;101038.05;111508;1232;70777;-93
2023/05/05 02:26:22;;;;;;;6.10;2.80;;;;;;;13.10;57.23;101035.52;111252;1232;61727;-92
2023/05/05 02:29:01;;;;;;;6.00;3.10;;;;;;;13.08;57.34;101039.98;111281;1232;59319;-91
2023/05/05 02:31:28;;;;;;;5.20;2.70;;;;;;;13.08;57.48;101041.50;111323;1232;73727;-92
2023/05/05 02:33:57;;;;;;;5.50;3.10;;;;;;;13.09;57.53;101041.50;111405;1231;70678;-91
2023/05/05 02:36:27;;;;;;;5.40;2.80;;;;;;;13.09;57.66;101039.04;111228;1231;73900;-93
2023/05/05 02:39:02;;;;;;;4.70;2.40;;;;;;;13.06;57.68;101040.15;111397;1232;61820;-93
2023/05/05 02:41:30;;;;;;;4.90;2.70;;;;;;;13.04;57.72;101042.88;111683;1231;59921;-95
2023/05/05 02:43:59;;;;;;;5.40;2.60;;;;;;;13.01;57.83;101035.47;111355;1231;73771;-93
2023/05/05 02:46:27;;;;;;;5.30;2.60;;;;;;;13.00;58.10;101038.69;111334;1231;72955;-93
2023/05/05 02:48:54;;;;;;;4.50;2.70;;;;;;;12.98;58.23;101034.86;111482;1231;70312;-91
2023/05/05 02:51:22;;;;;;;4.80;2.70;;;;;;;12.93;58.56;101034.45;111422;1231;61064;-93
2023/05/05 02:53:51;;;;;;;5.50;2.60;;;;;;;12.89;58.66;101032.57;111289;1230;60283;-92
2023/05/05 02:56:54;;;;;;;6.20;2.70;;;;;;;12.86;59.00;101035.23;111240;1231;74810;-92
2023/05/05 02:59:35;;;;;;;5.60;2.90;;;;;;;12.80;59.30;101030.27;110503;1238;72771;-94
2023/05/05 03:02:14;;;;;;;5.40;2.90;;;;;;;12.78;59.49;101032.40;111217;1235;73531;-92
2023/05/05 03:04:51;;;;;;;5.50;3.10;;;;;;;12.79;59.53;101040.98;111361;1231;62788;-92
2023/05/05 03:07:22;;;;;;;6.10;2.80;;;;;;;12.82;59.57;101045.99;111686;1231;58992;-91
2023/05/05 03:10:08;;;;;;;5.50;2.70;;;;;;;12.83;59.66;101042.50;111589;1232;74723;-93
2023/05/05 03:12:48;;;;;;;4.70;2.70;;;;;;;12.94;59.52;101039.71;111321;1232;73031;-93
2023/05/05 03:15:21;;;;;;;4.60;2.70;;;;;;;12.95;59.53;101041.02;111469;1232;71443;-93
2023/05/05 03:17:49;;;;;;;5.90;3.10;;;;;;;13.03;59.55;101049.04;111668;1231;62681;-93
2023/05/05 03:20:16;;;;;;;5.10;3.20;;;;;;;13.06;59.58;101045.68;111359;1236;60263;-93
2023/05/05 03:22:46;;;;;;;5.20;2.80;;;;;;;13.09;59.66;101048.27;111333;1231;71779;-91
2023/05/05 03:25:14;;;;;;;5.60;3.00;;;;;;;13.11;59.66;101048.64;111283;1232;71396;-94
2023/05/05 03:27:42;;;;;;;5.50;2.90;;;;;;;13.01;59.97;101053.06;111569;1232;72417;-92
2023/05/05 03:30:10;;;;;;;5.00;2.60;;;;;;;12.99;60.19;101060.55;111345;1231;62042;-94
2023/05/05 03:32:45;;;;;;;5.50;2.70;;;;;;;13.02;60.29;101063.30;111520;1230;59479;-94
2023/05/05 03:35:13;;;;;;;4.50;2.60;;;;;;;13.03;60.34;101067.13;111635;1232;72813;-94
2023/05/05 03:37:41;;;;;;;6.50;2.90;;;;;;;13.12;60.26;101067.32;111712;1231;73733;-94
2023/05/05 03:40:09;;;;;;;6.10;3.00;;;;;;;13.22;60.04;101066.51;111492;1232;73551;-95
2023/05/05 03:42:37;;;;;;;5.50;3.20;;;;;;;13.24;59.92;101063.64;111689;1231;61288;-94
2023/05/05 03:45:14;;;;;;;4.70;3.10;;;;;;;13.27;59.95;101065.76;111561;1230;61154;-90
2023/05/05 03:47:41;;;;;;;4.90;2.80;;;;;;;13.29;59.96;101063.89;111430;1231;74764;-91
2023/05/05 03:50:10;;;;;;;5.40;2.80;;;;;;;13.30;59.87;101060.35;111382;1231;71798;-93
2023/05/05 03:52:37;;;;;;;5.10;2.90;;;;;;;13.26;59.84;101060.91;111432;1231;73794;-93
2023/05/05 03:55:05;;;;;;;4.50;2.80;;;;;;;13.26;59.91;101063.70;111407;1232;61004;-92
2023/05/05 03:57:33;;;;;;;5.80;2.80;;;;;;;13.26;59.68;101065.70;111539;1230;60680;-94
2023/05/05 04:00:01;;;;;;;5.50;3.20;;;;;;;13.22;59.58;101066.99;111639;1230;74993;-94
2023/05/05 04:02:29;;;;;;;5.40;3.30;;;;;;;13.17;59.61;101070.35;111348;1232;73896;-93
2023/05/05 04:04:56;;;;;;;5.90;3.00;;;;;;;13.18;59.65;101077.81;111348;1232;73577;-93
2023/05/05 04:07:24;;;;;;;4.70;3.00;;;;;;;13.24;59.76;101078.29;111410;1232;62323;-91
2023/05/05 04:09:52;;;;;;;6.70;2.90;;;;;;;13.31;59.67;101080.80;111463;1231;60407;-92
2023/05/05 04:12:19;;;;;;;5.20;2.80;;;;;;;13.35;59.47;101078.08;111458;1232;73855;-93
2023/05/05 04:14:46;;;;;;;5.60;3.10;;;;;;;13.41;59.39;101081.96;111294;1236;73747;-91
2023/05/05 04:17:13;;;;;;;6.30;3.10;;;;;;;13.44;59.30;101083.96;111621;1232;73434;-92
2023/05/05 04:19:42;;;;;;;4.20;2.90;;;;;;;13.51;59.28;101084.95;111570;1231;61097;-90
2023/05/05 04:22:10;;;;;;;6.00;3.10;;;;;;;13.57;59.08;101081.96;111135;1237;60361;-92
2023/05/05 04:24:37;;;;;;;4.60;2.60;;;;;;;13.61;58.97;101081.23;111103;1231;73276;-92
2023/05/05 04:27:05;;;;;;;6.20;2.70;;;;;;;13.64;58.77;101078.39;111278;1232;72690;-93
2023/05/05 04:29:32;;;;;;;5.30;2.60;;;;;;;13.66;58.46;101078.98;111271;1232;72807;-93
2023/05/05 04:32:00;;;;;;;5.30;2.80;;;;;;;13.64;58.01;101083.21;111811;1230;61892;-93
2023/05/05 04:34:29;;;;;;;4.00;2.90;;;;;;;13.64;57.91;101082.25;111708;1232;60416;-92
2023/05/05 04:36:56;;;;;;;4.90;2.70;;;;;;;13.66;57.84;101082.85;111520;1231;73982;-90
2023/05/05 04:39:55;;;;;;;4.90;3.10;;;;;;;13.67;57.57;101081.29;111757;1230;71688;-92
2023/05/05 04:43:07;;;;;;;5.00;2.60;;;;;;;13.66;57.18;101077.91;111547;1232;73342;-93
2023/05/05 04:45:52;;;;;;;5.00;2.70;;;;;;;13.69;57.04;101074.73;111581;1230;61572;-93
2023/05/05 04:48:33;;;;;;;5.20;3.30;;;;;;;13.73;56.80;101066.05;111554;1230;59909;-92
2023/05/05 04:51:04;;;;;;;4.20;2.90;;;;;;;13.75;56.62;101071.16;111269;1230;73517;-93
2023/05/05 04:53:33;;;;;;;6.30;3.20;;;;;;;13.78;56.40;101077.62;111137;1231;73914;-94
2023/05/05 04:56:13;;;;;;;4.20;2.70;;;;;;;13.83;56.12;101085.57;111264;1231;73398;-93
2023/05/05 04:58:43;;;;;;;4.30;2.90;;;;;;;13.91;55.81;101096.33;111143;1230;62395;-92
2023/05/05 05:01:15;;;;;;;5.30;3.00;;;;;;;13.95;55.72;101098.96;111414;1231;60378;-90
2023/05/05 05:03:44;;;;;;;4.10;2.60;;;;;;;14.01;55.70;101096.98;111327;1231;73559;-93
2023/05/05 05:06:19;;;;;;;4.40;2.80;;;;;;;14.10;55.48;101094.15;111203;1231;73341;-94
2023/05/05 05:08:50;;;;;;;4.70;2.70;;;;;;;14.14;55.00;101093.95;111148;1230;72385;-94
2023/05/05 05:11:20;;;;;;;6.50;2.70;;;;;;;14.17;54.68;101092.23;111236;1232;60271;-92
2023/05/05 05:13:47;;;;;;;4.40;2.60;;;;;;;14.18;54.33;101100.02;110959;1230;631256;-93
2023/05/05 05:16:14;;;;;;;3.90;2.50;;;;;;;14.22;54.27;101100.92;111538;1231;73947;-93
2023/05/05 05:18:45;;;;;;;6.10;2.80;;;;;;;14.31;54.02;101105.13;111481;1231;72573;-92
2023/05/05 05:21:12;;;;;;;5.80;2.90;;;;;;;14.31;53.21;101106.59;111224;1232;73570;-91
2023/05/05 05:23:40;;;;;;;4.80;2.40;;;;;;;14.34;53.26;101110.45;111386;1232;60594;-91
2023/05/05 05:26:07;;;;;;;3.40;2.20;;;;;;;14.40;53.19;101115.23;111274;1230;60359;-93
2023/05/05 05:28:34;;;;;;;4.60;2.50;;;;;;;14.40;52.64;101112.23;111484;1232;73825;-92
2023/05/05 05:31:01;;;;;;;4.50;2.50;;;;;;;14.43;52.60;101115.23;111477;1231;73463;-93
2023/05/05 05:33:29;;;;;;;5.30;2.60;;;;;;;14.51;52.45;101115.79;111556;1230;71445;-92
2023/05/05 05:35:57;;;;;;;4.20;2.40;;;;;;;14.61;52.38;101118.27;111463;1232;62968;-92
2023/05/05 05:38:24;;;;;;;3.60;2.40;;;;;;;14.69;51.91;101118.42;111610;1232;60289;-93
2023/05/05 05:40:54;;;;;;;3.60;2.20;;;;;;;14.76;51.95;101121.16;111568;1232;74024;-89
2023/05/05 05:43:22;;;;;;;5.00;2.60;;;;;;;14.85;51.65;101124.54;111494;1233;72872;-94
2023/05/05 05:45:49;;;;;;;5.00;2.40;;;;;;;14.90;51.34;101120.60;111633;1232;73543;-94
2023/05/05 05:48:17;;;;;;;4.80;2.20;;;;;;;14.92;51.10;101112.96;111341;1232;60413;-92
2023/05/05 05:50:45;;;;;;;3.90;2.20;;;;;;;14.93;50.84;101109.90;111587;1230;59360;-91
2023/05/05 05:53:13;;;;;;;4.40;2.30;;;;;;;14.90;50.36;101105.33;111453;1233;74741;-93
2023/05/05 05:55:44;;;;;;;4.50;2.30;;;;;;;14.83;50.18;101106.14;111585;1234;72032;-93
2023/05/05 05:58:13;;;;;;;3.60;2.10;;;;;;;14.76;50.53;101108.36;111286;1231;72004;-93
2023/05/05 06:00:40;;;;;;;5.50;2.40;;;;;;;14.71;50.64;101110.69;111466;1232;62645;-91
2023/05/05 06:03:08;;;;;;;4.20;2.30;;;;;;;14.70;50.57;101113.36;111173;1232;60416;-93
2023/05/05 06:05:36;;;;;;;4.00;2.30;;;;;;;14.72;50.36;101114.61;111339;1231;74695;-92
2023/05/05 06:08:04;;;;;;;4.10;2.60;;;;;;;14.75;50.23;101117.94;111354;1231;71632;-92
2023/05/05 06:10:34;;;;;;;3.90;2.50;;;;;;;14.80;50.22;101114.59;111733;1231;73612;-94
2023/05/05 06:13:09;;;;;;;4.20;2.30;;;;;;;14.84;50.12;101110.61;111909;1231;61517;-95
2023/05/05 06:15:40;;;;;;;4.90;2.60;;;;;;;14.87;49.88;101115.61;111769;1230;59452;-93
2023/05/05 06:18:07;;;;;;;3.30;2.10;;;;;;;14.87;49.89;101117.01;111607;1232;73976;-93
2023/05/05 06:20:35;;;;;;;3.50;2.20;;;;;;;14.94;50.11;101115.70;111818;1232;72988;-92
2023/05/05 06:23:02;;;;;;;4.20;2.20;;;;;;;15.08;49.76;101114.64;111295;1232;70514;-88
2023/05/05 06:25:32;;;;;;;3.40;1.90;;;;;;;15.20;49.38;101109.08;111337;1231;59104;-88
2023/05/05 06:27:59;;;;;;;4.10;2.20;;;;;;;15.31;49.30;101109.95;111295;1230;61202;-88
2023/05/05 06:30:26;;;;;;;3.70;2.00;;;;;;;15.37;48.65;101113.96;111264;1234;73935;-88
2023/05/05 06:32:53;;;;;;;2.80;1.70;;;;;;;15.40;48.52;101114.37;111357;1230;71707;-88
2023/05/05 06:35:21;;;;;;;4.10;2.20;;;;;;;15.48;48.53;101110.31;111282;1231;71705;-89
2023/05/05 06:37:48;;;;;;;4.60;2.10;;;;;;;15.51;48.03;101106.64;111395;1230;60661;-89
2023/05/05 06:40:14;;;;;;;4.20;2.30;;;;;;;15.50;48.03;101106.75;111356;1231;61097;-86
2023/05/05 06:42:41;;;;;;;3.30;1.70;;;;;;;15.58;47.99;101111.34;111374;1231;74066;-88
2023/05/05 06:45:14;;;;;;;2.60;1.60;;;;;;;15.67;46.69;101111.65;111352;1231;72706;-87
2023/05/05 06:47:42;;;;;;;3.60;1.80;;;;;;;15.61;46.10;101105.19;111358;1230;72784;-88
2023/05/05 06:50:10;;;;;;;3.30;1.70;;;;;;;15.57;46.43;101104.61;111326;1231;60400;-88
2023/05/05 06:52:38;;;;;;;3.50;1.70;;;;;;;15.59;46.65;101101.64;111296;1230;60009;-88
2023/05/05 06:55:06;;;;;;;4.30;2.00;;;;;;;15.64;46.64;101099.42;111215;1230;72702;-89
2023/05/05 06:57:33;;;;;;;3.70;1.90;;;;;;;15.69;46.13;101100.60;111215;1230;73557;-90
2023/05/05 07:00:02;;;;;;;2.50;1.70;;;;;;;15.75;46.16;101103.05;111345;1231;72780;-88
2023/05/05 07:02:30;;;;;;;2.70;1.80;;;;;;;15.92;45.53;101100.02;111353;1231;60386;-88
2023/05/05 07:04:57;;;;;;;3.00;1.80;;;;;;;16.12;45.15;101102.59;111133;1231;60433;-87
2023/05/05 07:07:34;;;;;;;2.70;1.80;;;;;;;16.24;44.62;101099.05;111456;1231;71805;-93
2023/05/05 07:10:05;;;;;;;5.90;1.60;;;;;;;16.36;44.53;101102.04;111377;1237;72754;-92
2023/05/05 07:12:33;;;;;;;3.50;1.60;;;;;;;16.44;44.25;101109.24;111272;1234;72798;-91
2023/05/05 07:15:01;;;;;;;2.90;1.50;;;;;;;16.54;43.64;101110.55;111667;1233;60680;-93
2023/05/05 07:17:43;;;;;;;2.80;1.50;;;;;;;16.66;43.18;101110.45;111452;1233;61456;-91
2023/05/05 07:20:10;;;;;;;2.70;1.30;;;;;;;16.75;42.65;101104.67;111189;1234;74990;-92
2023/05/05 07:22:38;;;;;;;3.30;1.50;;;;;;;16.85;42.58;101101.60;111370;1234;71746;-94
2023/05/05 07:25:06;;;;;;;2.40;1.40;;;;;;;16.97;42.33;101099.98;111804;1233;70988;-93
2023/05/05 07:27:36;;;;;;;3.30;1.50;;;;;;;17.12;42.04;101099.86;112273;1231;59418;-94
2023/05/05 07:30:05;;;;;;;3.00;1.60;;;;;;;17.26;40.68;101099.60;112201;1230;58316;-87
2023/05/05 07:32:39;;;;;;;2.90;1.50;;;;;;;17.29;39.87;101097.18;112011;1231;72790;-94
2023/05/05 07:35:11;;;;;;;1.60;1.10;;;;;;;17.29;39.91;101101.50;111638;1230;72740;-89
2023/05/05 07:38:33;;;;;;;3.10;1.40;;;;;;;17.31;39.68;101101.65;111564;1237;73460;-92
2023/05/05 07:41:00;;;;;;;2.50;1.30;;;;;;;17.27;39.57;101105.46;111044;1234;60300;-92
2023/05/05 07:43:35;;;;;;;3.10;1.50;;;;;;;17.14;38.87;101103.83;111264;1234;59220;-93
2023/05/05 07:46:11;;;;;;;2.40;1.20;;;;;;;17.07;39.52;101106.17;111768;1234;73691;-93
2023/05/05 07:49:09;;;;;;;2.70;1.50;;;;;;;17.05;39.50;101099.45;111734;1234;71748;-91
2023/05/05 07:51:36;;;;;;;2.90;1.50;;;;;;;16.99;39.75;101095.96;111226;1234;73259;-93
2023/05/05 07:54:04;;;;;;;2.80;1.50;;;;;;;16.99;39.77;101098.29;111705;1234;59806;-94
2023/05/05 07:56:31;;;;;;;3.30;1.70;;;;;;;17.10;39.77;101096.27;111398;1234;60375;-93
2023/05/05 07:58:58;;;;;;;2.30;1.50;;;;;;;17.25;39.36;101095.18;111426;1235;73499;-92
2023/05/05 08:01:26;;;;;;;2.30;1.40;;;;;;;17.33;39.18;101101.67;111894;1237;72936;-90
2023/05/05 08:03:53;;;;;;;2.90;1.70;;;;;;;17.42;38.88;101099.19;111655;1233;72559;-93
2023/05/05 08:06:20;;;;;;;4.90;1.60;;;;;;;17.48;39.07;101100.94;111764;1234;60449;-92
2023/05/05 08:08:48;;;;;;;4.70;1.50;;;;;;;17.56;39.07;101101.42;111501;1234;59474;-92
2023/05/05 08:11:15;;;;;;;2.30;1.50;;;;;;;17.50;38.54;101097.98;111554;1234;73770;-92
2023/05/05 08:13:45;;;;;;;2.00;1.30;;;;;;;17.43;38.85;101099.44;112439;1233;71568;-85
2023/05/05 08:16:15;;;;;;;2.50;1.60;;;;;;;17.42;39.18;101100.47;112676;1231;71606;-81
2023/05/05 08:18:46;;;;;;;4.30;1.60;;;;;;;17.52;38.88;101100.34;112557;1230;59278;-95
2023/05/05 08:21:14;;;;;;;2.50;1.40;;;;;;;17.69;37.94;101103.20;112339;1230;60946;-94
2023/05/05 08:23:44;;;;;;;3.60;1.40;;;;;;;17.76;37.12;101102.90;112092;1230;73059;-94
2023/05/05 08:26:12;;;;;;;2.50;1.20;;;;;;;17.74;36.89;101102.55;111860;1230;73485;-93
2023/05/05 08:28:40;;;;;;;2.70;1.40;;;;;;;17.73;37.44;101100.77;111909;1231;71690;-94
2023/05/05 08:31:08;;;;;;;3.00;1.10;;;;;;;17.80;37.76;101096.05;111819;1232;60299;-87
2023/05/05 08:33:35;;;;;;;2.80;1.50;;;;;;;17.86;37.47;101094.63;112784;1230;58155;-90
2023/05/05 08:36:02;;;;;;;2.70;1.20;;;;;;;17.81;36.96;101095.50;112693;1230;73090;-84
2023/05/05 08:38:30;;;;;;;2.90;1.70;;;;;;;17.74;36.98;101097.84;112609;1229;72496;-90
2023/05/05 08:40:57;;;;;;;3.40;1.40;;;;;;;17.68;36.99;101098.20;112687;1231;70566;-96
2023/05/05 08:43:24;;;;;;;1.70;1.20;;;;;;;17.69;37.22;101096.79;112636;1231;58461;-78
2023/05/05 08:45:51;;;;;;;2.30;1.40;;;;;;;17.79;37.46;101097.84;111718;1231;60414;-90
2023/05/05 08:48:21;;;;;;;2.50;1.40;;;;;;;17.95;37.37;101098.33;111599;1230;72561;-88
2023/05/05 08:50:57;;;;;;;3.00;1.60;;;;;;;18.08;37.07;101094.61;111780;1230;72447;-91
2023/05/05 08:54:01;;;;;;;3.60;1.60;;;;;;;18.18;36.56;101096.95;111639;1230;71628;-88
2023/05/05 08:56:33;;;;;;;3.20;1.50;;;;;;;18.29;36.22;101096.30;111402;1230;60422;-89
2023/05/05 08:59:00;;;;;;;3.70;1.30;;;;;;;18.38;35.96;101094.14;111094;1230;60270;-89
2023/05/05 09:01:27;;;;;;;3.00;1.20;;;;;;;18.43;36.06;101092.27;111248;1231;74421;-88
2023/05/05 09:03:55;;;;;;;3.30;1.40;;;;;;;18.47;35.02;101092.36;111391;1230;71112;-92
2023/05/05 09:06:23;;;;;;;2.80;1.40;;;;;;;18.45;34.16;101092.55;111205;1231;72568;-89
2023/05/05 09:08:50;;;;;;;3.00;1.60;;;;;;;18.39;34.42;101091.79;111311;1231;60310;-91
2023/05/05 09:11:17;;;;;;;3.30;1.30;;;;;;;18.39;34.28;101100.66;111415;1230;60589;-91
2023/05/05 09:13:44;;;;;;;2.70;1.40;;;;;;;18.43;34.03;101094.27;111165;1230;74438;-89
2023/05/05 09:16:10;;;;;;;2.30;1.50;;;;;;;18.46;33.84;101094.98;111326;1232;71779;-90
2023/05/05 09:18:39;;;;;;;2.40;1.50;;;;;;;18.47;33.72;101090.85;111393;1231;71262;-89
2023/05/05 09:21:20;;;;;;;2.70;1.50;;;;;;;18.56;34.26;101084.59;111297;1230;60444;-90
2023/05/05 09:24:07;;;;;;;2.10;1.20;;;;;;;18.69;34.77;101083.65;111314;1232;60262;-89
2023/05/05 09:26:41;;;;;;;2.40;1.30;;;;;;;18.85;34.59;101079.10;111356;1231;71948;-87
2023/05/05 09:29:08;;;;;;;2.40;1.30;;;;;;;18.94;34.16;101084.35;111327;1232;72053;-90
2023/05/05 09:31:36;;;;;;;4.30;1.50;;;;;;;18.99;33.94;101083.98;111244;1230;71791;-89
2023/05/05 09:34:15;;;;;;;4.60;1.40;;;;;;;18.96;34.03;101084.79;111341;1231;60384;-89
2023/05/05 09:36:48;;;;;;;2.50;1.30;;;;;;;19.00;34.61;101088.16;111125;1237;60344;-89
2023/05/05 09:39:19;;;;;;;3.30;1.30;;;;;;;19.11;34.15;101084.19;111449;1231;72107;-89
2023/05/05 09:41:50;;;;;;;3.80;1.40;;;;;;;19.05;33.58;101082.09;111612;1230;72725;-89
2023/05/05 09:44:34;;;;;;;3.30;1.50;;;;;;;18.98;33.95;101079.01;111406;1231;71230;-89
2023/05/05 09:47:00;;;;;;;2.50;1.20;;;;;;;19.07;34.06;101078.58;111425;1230;59489;-89
2023/05/05 09:49:28;;;;;;;3.00;1.40;;;;;;;19.09;32.71;101073.02;111364;1231;60320;-93
2023/05/05 09:51:56;;;;;;;3.20;1.30;;;;;;;18.99;32.92;101071.14;111202;1231;72906;-88
2023/05/05 09:54:29;;;;;;;2.20;1.30;;;;;;;18.99;33.26;101062.80;111408;1232;71615;-89
2023/05/05 09:56:55;;;;;;;2.60;1.30;;;;;;;19.04;33.16;101068.29;111391;1231;71188;-91
2023/05/05 09:59:22;;;;;;;3.70;1.30;;;;;;;19.10;32.47;101065.68;111395;1230;59345;-90
2023/05/05 10:01:51;;;;;;;3.30;1.50;;;;;;;19.13;32.64;101067.94;111697;1234;60554;-91
2023/05/05 10:04:32;;;;;;;2.20;1.20;;;;;;;19.20;32.51;101065.46;111952;1231;72062;-90
2023/05/05 10:06:59;;;;;;;4.10;1.40;;;;;;;19.25;32.33;101063.25;111466;1231;71678;-90
2023/05/05 10:09:26;;;;;;;3.10;1.10;;;;;;;19.28;32.29;101057.84;111312;1230;73044;-88
2023/05/05 10:11:54;;;;;;;2.30;1.30;;;;;;;19.29;32.02;101057.54;111106;1231;61535;-89
2023/05/05 10:14:20;;;;;;;2.20;1.20;;;;;;;19.23;31.34;101059.13;111193;1231;61350;-89
2023/05/05 10:16:49;;;;;;;2.40;1.40;;;;;;;19.15;31.32;101054.73;111153;1231;71681;-89
2023/05/05 10:19:18;;;;;;;3.00;1.20;;;;;;;19.19;32.13;101051.85;111349;1230;73062;-90
2023/05/05 10:21:52;;;;;;;1.50;1.00;;;;;;;19.29;32.21;101050.08;111362;1234;72590;-88
2023/05/05 10:24:28;;;;;;;2.50;1.40;;;;;;;19.32;31.63;101050.61;111280;1231;59692;-88
2023/05/05 10:26:55;;;;;;;2.90;1.20;;;;;;;19.35;30.99;101045.61;111313;1231;60450;-89
2023/05/05 10:29:36;;;;;;;2.10;1.30;;;;;;;19.39;31.19;101042.73;111145;1230;74648;-88
2023/05/05 10:32:05;;;;;;;3.30;1.30;;;;;;;19.54;31.05;101049.26;111423;1231;72145;-88
2023/05/05 10:34:55;;;;;;;2.40;1.30;;;;;;;19.74;30.65;101042.13;111368;1231;71264;-90
2023/05/05 10:37:22;;;;;;;3.60;1.20;;;;;;;19.83;31.07;101045.20;111377;1230;60420;-90
2023/05/05 10:39:49;;;;;;;3.60;1.40;;;;;;;19.91;31.11;101035.98;111400;1231;60320;-91
2023/05/05 10:42:18;;;;;;;3.60;1.30;;;;;;;20.16;30.65;101037.29;111419;1232;72421;-90
2023/05/05 10:44:47;;;;;;;2.50;1.40;;;;;;;20.27;29.92;101036.11;111365;1231;71752;-90
2023/05/05 10:47:16;;;;;;;2.50;1.30;;;;;;;20.21;29.99;101031.06;111312;1231;70982;-88
2023/05/05 10:49:53;;;;;;;1.90;1.10;;;;;;;20.19;29.87;101024.08;111308;1231;61323;-89
2023/05/05 10:52:38;;;;;;;2.70;1.40;;;;;;;20.22;30.84;101023.39;111326;1231;60260;-88
2023/05/05 10:55:16;;;;;;;2.00;1.20;;;;;;;20.35;30.15;101022.81;111388;1230;73770;-87
2023/05/05 10:57:45;;;;;;;3.40;1.70;;;;;;;20.37;30.23;101021.69;111337;1231;72628;-91
2023/05/05 11:00:36;;;;;;;2.60;1.30;;;;;;;20.41;30.11;101018.54;111184;1230;71365;-87
2023/05/05 11:03:15;;;;;;;2.70;1.40;;;;;;;20.54;30.15;101012.75;111342;1230;60535;-90
2023/05/05 11:08:35;;;;;;;2.60;1.20;;;;;;;20.79;29.24;101006.17;111390;1234;74094;-87
2023/05/05 11:11:02;;;;;;;2.80;1.50;;;;;;;20.88;28.88;101002.91;111162;1231;71612;-90
2023/05/05 11:13:30;;;;;;;3.60;1.40;;;;;;;20.90;29.05;100999.59;111391;1231;71487;-88
2023/05/05 11:15:58;;;;;;;2.80;1.50;;;;;;;20.96;28.53;100995.94;111387;1231;61233;-90
2023/05/05 11:18:38;;;;;;;3.80;1.40;;;;;;;21.04;28.84;100994.13;111276;1231;60529;-91
2023/05/05 11:21:14;;;;;;;3.00;1.50;;;;;;;21.19;28.54;100989.33;111310;1231;73541;-88
2023/05/05 11:23:46;;;;;;;1.90;1.30;;;;;;;21.23;27.82;100986.55;111256;1231;72761;-88
2023/05/05 11:26:14;;;;;;;2.60;1.50;;;;;;;21.26;27.88;100982.42;111237;1230;71728;-88
2023/05/05 11:29:01;;;;;;;3.00;1.30;;;;;;;21.27;28.27;100982.69;111335;1234;60303;-89
2023/05/05 11:31:32;;;;;;;2.10;1.30;;;;;;;21.35;28.79;100981.14;111399;1231;59384;-89
2023/05/05 11:34:27;;;;;;;2.70;1.50;;;;;;;21.48;27.76;100984.45;111406;1231;74117;-88
2023/05/05 11:36:56;;;;;;;3.00;1.30;;;;;;;21.53;27.02;100989.63;111199;1236;72378;-89
2023/05/05 11:39:38;;;;;;;3.30;1.70;;;;;;;21.37;26.64;100984.02;111354;1231;71477;-89
2023/05/05 11:42:26;;;;;;;2.40;1.20;;;;;;;21.21;27.07;100980.64;111165;1231;60984;-88
2023/05/05 11:44:53;;;;;;;3.10;1.40;;;;;;;21.07;27.49;100989.95;111428;1230;60140;-87